sensor_id;sensor_type;location;lat;lon;timestamp;pressure;altitude;pressure_sealevel;temperature;humidity
51972;BME280;37991;49.662;10.060;2024-02-21T00:01:03;100195.91;;;6.97;87.68
51972;BME280;37991;49.662;10.060;2024-02-21T00:03:29;100195.91;;;6.97;87.95
51972;BME280;37991;49.662;10.060;2024-02-21T00:05:54;100199.31;;;6.99;88.34
51972;BME280;37991;49.662;10.060;2024-02-21T00:08:19;100194.09;;;6.99;88.13
51972;BME280;37991;49.662;10.060;2024-02-21T00:10:45;100191.38;;;7.03;88.17
51972;BME280;37991;49.662;10.060;2024-02-21T00:13:10;100185.50;;;6.97;87.83
51972;BME280;37991;49.662;10.060;2024-02-21T00:15:35;100181.34;;;6.93;88.42
51972;BME280;37991;49.662;10.060;2024-02-21T00:18:01;100183.84;;;6.95;88.57
51972;BME280;37991;49.662;10.060;2024-02-21T00:20:26;100182.88;;;6.97;88.42
51972;BME280;37991;49.662;10.060;2024-02-21T00:22:52;100182.03;;;6.97;88.51
51972;BME280;37991;49.662;10.060;2024-02-21T00:25:17;100176.88;;;6.95;88.86
51972;BME280;37991;49.662;10.060;2024-02-21T00:27:43;100177.75;;;6.96;89.00
51972;BME280;37991;49.662;10.060;2024-02-21T00:30:09;100168.22;;;6.95;88.93
51972;BME280;37991;49.662;10.060;2024-02-21T00:32:34;100167.38;;;6.94;88.63
51972;BME280;37991;49.662;10.060;2024-02-21T00:35:00;100165.63;;;6.95;88.61
51972;BME280;37991;49.662;10.060;2024-02-21T00:37:26;100160.50;;;6.93;89.16
51972;BME280;37991;49.662;10.060;2024-02-21T00:39:53;100159.66;;;6.93;89.38
51972;BME280;37991;49.662;10.060;2024-02-21T00:42:18;100157.03;;;6.93;89.20
51972;BME280;37991;49.662;10.060;2024-02-21T00:44:44;100153.72;;;6.89;88.98
51972;BME280;37991;49.662;10.060;2024-02-21T00:47:10;100150.19;;;6.90;89.25
51972;BME280;37991;49.662;10.060;2024-02-21T00:49:35;100148.44;;;6.91;89.00
51972;BME280;37991;49.662;10.060;2024-02-21T00:52:00;100142.38;;;6.90;89.14
51972;BME280;37991;49.662;10.060;2024-02-21T00:54:26;100139.84;;;6.89;88.99
51972;BME280;37991;49.662;10.060;2024-02-21T00:56:51;100135.63;;;6.86;89.23
51972;BME280;37991;49.662;10.060;2024-02-21T00:59:16;100133.06;;;6.85;89.30
51972;BME280;37991;49.662;10.060;2024-02-21T01:01:42;100127.06;;;6.83;89.42
51972;BME280;37991;49.662;10.060;2024-02-21T01:04:08;100130.66;;;6.80;89.72
51972;BME280;37991;49.662;10.060;2024-02-21T01:06:34;100128.19;;;6.77;89.54
51972;BME280;37991;49.662;10.060;2024-02-21T01:08:59;100128.06;;;6.80;90.06
51972;BME280;37991;49.662;10.060;2024-02-21T01:11:24;100122.16;;;6.77;89.65
51972;BME280;37991;49.662;10.060;2024-02-21T01:13:50;100117.78;;;6.77;89.69
51972;BME280;37991;49.662;10.060;2024-02-21T01:16:15;100109.13;;;6.77;89.51
51972;BME280;37991;49.662;10.060;2024-02-21T01:18:40;100119.53;;;6.77;90.26
51972;BME280;37991;49.662;10.060;2024-02-21T01:21:07;100110.69;;;6.81;89.54
51972;BME280;37991;49.662;10.060;2024-02-21T01:23:36;100102.28;;;6.74;89.43
51972;BME280;37991;49.662;10.060;2024-02-21T01:26:02;100094.59;;;6.71;89.84
51972;BME280;37991;49.662;10.060;2024-02-21T01:28:28;100093.75;;;6.70;90.54
51972;BME280;37991;49.662;10.060;2024-02-21T01:30:53;100097.25;;;6.69;90.09
51972;BME280;37991;49.662;10.060;2024-02-21T01:33:19;100087.84;;;6.67;90.23
51972;BME280;37991;49.662;10.060;2024-02-21T01:35:44;100080.91;;;6.66;90.68
51972;BME280;37991;49.662;10.060;2024-02-21T01:38:12;100089.63;;;6.65;90.67
51972;BME280;37991;49.662;10.060;2024-02-21T01:40:37;100081.75;;;6.66;90.00
51972;BME280;37991;49.662;10.060;2024-02-21T01:43:03;100093.22;;;6.62;90.84
51972;BME280;37991;49.662;10.060;2024-02-21T01:45:28;100082.09;;;6.59;90.89
51972;BME280;37991;49.662;10.060;2024-02-21T01:47:53;100069.28;;;6.54;90.97
51972;BME280;37991;49.662;10.060;2024-02-21T01:50:20;100073.69;;;6.52;90.85
51972;BME280;37991;49.662;10.060;2024-02-21T01:52:48;100077.13;;;6.52;91.61
51972;BME280;37991;49.662;10.060;2024-02-21T01:55:15;100079.81;;;6.51;91.50
51972;BME280;37991;49.662;10.060;2024-02-21T01:57:42;100065.09;;;6.50;91.60
51972;BME280;37991;49.662;10.060;2024-02-21T02:00:13;100073.69;;;6.52;91.79
51972;BME280;37991;49.662;10.060;2024-02-21T02:02:38;100060.81;;;6.49;91.71
51972;BME280;37991;49.662;10.060;2024-02-21T02:05:04;100064.31;;;6.48;91.67
51972;BME280;37991;49.662;10.060;2024-02-21T02:07:31;100067.88;;;6.45;91.93
51972;BME280;37991;49.662;10.060;2024-02-21T02:09:56;100059.16;;;6.46;91.99
51972;BME280;37991;49.662;10.060;2024-02-21T02:12:22;100050.44;;;6.47;91.91
51972;BME280;37991;49.662;10.060;2024-02-21T02:14:58;100048.63;;;6.49;92.13
51972;BME280;37991;49.662;10.060;2024-02-21T02:17:23;100042.50;;;6.50;92.07
51972;BME280;37991;49.662;10.060;2024-02-21T02:19:48;100043.28;;;6.52;92.66
51972;BME280;37991;49.662;10.060;2024-02-21T02:22:18;100035.56;;;6.51;92.80
51972;BME280;37991;49.662;10.060;2024-02-21T02:24:47;100038.03;;;6.54;92.92
51972;BME280;37991;49.662;10.060;2024-02-21T02:27:12;100029.22;;;6.57;93.01
51972;BME280;37991;49.662;10.060;2024-02-21T02:29:37;100028.34;;;6.58;93.42
51972;BME280;37991;49.662;10.060;2024-02-21T02:32:03;100024.72;;;6.60;93.09
51972;BME280;37991;49.662;10.060;2024-02-21T02:34:28;100030.72;;;6.62;93.19
51972;BME280;37991;49.662;10.060;2024-02-21T02:36:54;100043.63;;;6.65;92.62
51972;BME280;37991;49.662;10.060;2024-02-21T02:39:19;100056.72;;;6.64;94.05
51972;BME280;37991;49.662;10.060;2024-02-21T02:41:45;100051.44;;;6.65;94.29
51972;BME280;37991;49.662;10.060;2024-02-21T02:44:10;100042.69;;;6.66;94.36
51972;BME280;37991;49.662;10.060;2024-02-21T02:46:35;100039.47;;;6.61;95.70
51972;BME280;37991;49.662;10.060;2024-02-21T02:49:01;100029.22;;;6.57;97.09
51972;BME280;37991;49.662;10.060;2024-02-21T02:51:26;100017.00;;;6.59;97.32
51972;BME280;37991;49.662;10.060;2024-02-21T02:53:51;100012.00;;;6.54;98.66
51972;BME280;37991;49.662;10.060;2024-02-21T02:56:17;100005.16;;;6.51;99.06
51972;BME280;37991;49.662;10.060;2024-02-21T02:58:43;100006.06;;;6.50;99.89
51972;BME280;37991;49.662;10.060;2024-02-21T03:01:09;100008.88;;;6.46;100.00
51972;BME280;37991;49.662;10.060;2024-02-21T03:03:34;100000.22;;;6.45;100.00
51972;BME280;37991;49.662;10.060;2024-02-21T03:06:00;99998.59;;;6.43;100.00
51972;BME280;37991;49.662;10.060;2024-02-21T03:08:26;99994.44;;;6.39;100.00
51972;BME280;37991;49.662;10.060;2024-02-21T03:10:51;99991.81;;;6.39;100.00
51972;BME280;37991;49.662;10.060;2024-02-21T03:13:16;99990.13;;;6.38;100.00
51972;BME280;37991;49.662;10.060;2024-02-21T03:15:42;99989.34;;;6.36;100.00
51972;BME280;37991;49.662;10.060;2024-02-21T03:18:07;99991.16;;;6.34;100.00
51972;BME280;37991;49.662;10.060;2024-02-21T03:20:32;99992.84;;;6.35;100.00
51972;BME280;37991;49.662;10.060;2024-02-21T03:22:58;99997.34;;;6.31;100.00
51972;BME280;37991;49.662;10.060;2024-02-21T03:25:23;100008.78;;;6.27;100.00
51972;BME280;37991;49.662;10.060;2024-02-21T03:27:48;100007.09;;;6.26;100.00
51972;BME280;37991;49.662;10.060;2024-02-21T03:30:14;100003.72;;;6.24;100.00
51972;BME280;37991;49.662;10.060;2024-02-21T03:32:39;100008.13;;;6.22;100.00
51972;BME280;37991;49.662;10.060;2024-02-21T03:35:05;100002.03;;;6.23;100.00
51972;BME280;37991;49.662;10.060;2024-02-21T03:37:30;99996.00;;;6.22;100.00
51972;BME280;37991;49.662;10.060;2024-02-21T03:39:56;99989.91;;;6.22;100.00
51972;BME280;37991;49.662;10.060;2024-02-21T03:42:21;99984.66;;;6.23;100.00
51972;BME280;37991;49.662;10.060;2024-02-21T03:44:46;99979.50;;;6.22;100.00
51972;BME280;37991;49.662;10.060;2024-02-21T03:47:12;99977.03;;;6.19;100.00
51972;BME280;37991;49.662;10.060;2024-02-21T03:49:37;99983.16;;;6.18;100.00
51972;BME280;37991;49.662;10.060;2024-02-21T03:52:03;99975.44;;;6.16;100.00
51972;BME280;37991;49.662;10.060;2024-02-21T03:54:28;99972.16;;;6.11;100.00
51972;BME280;37991;49.662;10.060;2024-02-21T03:56:54;99962.59;;;6.12;100.00
51972;BME280;37991;49.662;10.060;2024-02-21T03:59:19;99963.50;;;6.11;100.00
51972;BME280;37991;49.662;10.060;2024-02-21T04:01:44;99965.41;;;6.07;100.00
51972;BME280;37991;49.662;10.060;2024-02-21T04:04:10;99967.22;;;6.05;100.00
51972;BME280;37991;49.662;10.060;2024-02-21T04:06:35;99966.50;;;6.01;100.00
51972;BME280;37991;49.662;10.060;2024-02-21T04:09:01;99965.66;;;6.01;100.00
51972;BME280;37991;49.662;10.060;2024-02-21T04:11:27;99955.38;;;5.98;100.00
51972;BME280;37991;49.662;10.060;2024-02-21T04:13:52;99956.28;;;5.97;100.00
51972;BME280;37991;49.662;10.060;2024-02-21T04:16:18;99951.97;;;5.96;100.00
51972;BME280;37991;49.662;10.060;2024-02-21T04:18:43;99951.22;;;5.94;100.00
51972;BME280;37991;49.662;10.060;2024-02-21T04:21:09;99943.50;;;5.91;100.00
51972;BME280;37991;49.662;10.060;2024-02-21T04:23:34;99942.72;;;5.89;100.00
51972;BME280;37991;49.662;10.060;2024-02-21T04:26:00;99936.53;;;5.91;100.00
51972;BME280;37991;49.662;10.060;2024-02-21T04:28:25;99934.84;;;5.90;100.00
51972;BME280;37991;49.662;10.060;2024-02-21T04:30:50;99927.19;;;5.87;100.00
51972;BME280;37991;49.662;10.060;2024-02-21T04:33:16;99939.31;;;5.87;100.00
51972;BME280;37991;49.662;10.060;2024-02-21T04:35:41;99929.97;;;5.82;100.00
51972;BME280;37991;49.662;10.060;2024-02-21T04:38:07;99933.53;;;5.80;100.00
51972;BME280;37991;49.662;10.060;2024-02-21T04:40:32;99920.72;;;5.75;100.00
51972;BME280;37991;49.662;10.060;2024-02-21T04:42:57;99924.25;;;5.74;100.00
51972;BME280;37991;49.662;10.060;2024-02-21T04:45:23;99923.38;;;5.74;100.00
51972;BME280;37991;49.662;10.060;2024-02-21T04:47:48;99926.97;;;5.71;100.00
51972;BME280;37991;49.662;10.060;2024-02-21T04:50:13;99923.81;;;5.63;100.00
51972;BME280;37991;49.662;10.060;2024-02-21T04:52:39;99919.59;;;5.60;100.00
51972;BME280;37991;49.662;10.060;2024-02-21T04:55:04;99924.16;;;5.55;100.00
51972;BME280;37991;49.662;10.060;2024-02-21T04:57:29;99926.06;;;5.50;100.00
51972;BME280;37991;49.662;10.060;2024-02-21T04:59:55;99923.66;;;5.46;100.00
51972;BME280;37991;49.662;10.060;2024-02-21T05:02:20;99921.22;;;5.41;100.00
51972;BME280;37991;49.662;10.060;2024-02-21T05:04:47;99930.09;;;5.35;100.00
51972;BME280;37991;49.662;10.060;2024-02-21T05:07:13;99937.19;;;5.32;100.00
51972;BME280;37991;49.662;10.060;2024-02-21T05:09:38;99924.44;;;5.26;100.00
51972;BME280;37991;49.662;10.060;2024-02-21T05:12:04;99921.19;;;5.21;100.00
51972;BME280;37991;49.662;10.060;2024-02-21T05:14:29;99917.84;;;5.17;100.00
51972;BME280;37991;49.662;10.060;2024-02-21T05:16:55;99918.84;;;5.13;100.00
51972;BME280;37991;49.662;10.060;2024-02-21T05:19:20;99925.16;;;5.07;100.00
51972;BME280;37991;49.662;10.060;2024-02-21T05:21:45;99919.22;;;5.04;100.00
51972;BME280;37991;49.662;10.060;2024-02-21T05:24:11;99910.81;;;4.97;100.00
51972;BME280;37991;49.662;10.060;2024-02-21T05:26:36;99928.97;;;4.97;100.00
51972;BME280;37991;49.662;10.060;2024-02-21T05:29:02;99918.78;;;4.93;100.00
51972;BME280;37991;49.662;10.060;2024-02-21T05:31:49;99910.31;;;4.87;100.00
51972;BME280;37991;49.662;10.060;2024-02-21T05:34:20;99914.88;;;4.81;100.00
51972;BME280;37991;49.662;10.060;2024-02-21T05:36:46;99910.75;;;4.75;100.00
51972;BME280;37991;49.662;10.060;2024-02-21T05:39:13;99909.16;;;4.73;100.00
51972;BME280;37991;49.662;10.060;2024-02-21T05:41:38;99905.81;;;4.69;100.00
51972;BME280;37991;49.662;10.060;2024-02-21T05:44:04;99898.03;;;4.69;100.00
51972;BME280;37991;49.662;10.060;2024-02-21T05:46:29;99898.88;;;4.70;100.00
51972;BME280;37991;49.662;10.060;2024-02-21T05:48:54;99892.03;;;4.67;100.00
51972;BME280;37991;49.662;10.060;2024-02-21T05:51:20;99898.16;;;4.66;100.00
51972;BME280;37991;49.662;10.060;2024-02-21T05:53:45;99889.50;;;4.65;100.00
51972;BME280;37991;49.662;10.060;2024-02-21T05:56:11;99891.13;;;4.68;100.00
51972;BME280;37991;49.662;10.060;2024-02-21T05:58:37;99887.81;;;4.64;100.00
51972;BME280;37991;49.662;10.060;2024-02-21T06:01:03;99891.25;;;4.65;100.00
51972;BME280;37991;49.662;10.060;2024-02-21T06:03:29;99891.25;;;4.65;100.00
51972;BME280;37991;49.662;10.060;2024-02-21T06:05:54;99889.59;;;4.62;100.00
51972;BME280;37991;49.662;10.060;2024-02-21T06:08:20;99889.69;;;4.61;100.00
51972;BME280;37991;49.662;10.060;2024-02-21T06:10:45;99881.94;;;4.59;100.00
51972;BME280;37991;49.662;10.060;2024-02-21T06:13:10;99888.09;;;4.57;100.00
51972;BME280;37991;49.662;10.060;2024-02-21T06:15:36;99881.28;;;4.54;100.00
51972;BME280;37991;49.662;10.060;2024-02-21T06:18:01;99888.03;;;4.58;100.00
51972;BME280;37991;49.662;10.060;2024-02-21T06:20:27;99886.56;;;4.51;100.00
51972;BME280;37991;49.662;10.060;2024-02-21T06:22:53;99890.91;;;4.51;100.00
51972;BME280;37991;49.662;10.060;2024-02-21T06:25:18;99882.19;;;4.53;100.00
51972;BME280;37991;49.662;10.060;2024-02-21T06:27:43;99883.91;;;4.53;100.00
51972;BME280;37991;49.662;10.060;2024-02-21T06:30:09;99887.25;;;4.56;100.00
51972;BME280;37991;49.662;10.060;2024-02-21T06:32:35;99882.13;;;4.55;100.00
51972;BME280;37991;49.662;10.060;2024-02-21T06:35:00;99880.44;;;4.54;100.00
51972;BME280;37991;49.662;10.060;2024-02-21T06:37:27;99880.47;;;4.52;100.00
51972;BME280;37991;49.662;10.060;2024-02-21T06:39:52;99883.97;;;4.51;100.00
51972;BME280;37991;49.662;10.060;2024-02-21T06:42:17;99880.53;;;4.51;100.00
51972;BME280;37991;49.662;10.060;2024-02-21T06:44:44;99876.19;;;4.51;100.00
51972;BME280;37991;49.662;10.060;2024-02-21T06:47:09;99875.28;;;4.52;100.00
51972;BME280;37991;49.662;10.060;2024-02-21T06:49:34;99878.56;;;4.57;100.00
51972;BME280;37991;49.662;10.060;2024-02-21T06:52:02;99875.06;;;4.58;100.00
51972;BME280;37991;49.662;10.060;2024-02-21T06:54:27;99876.59;;;4.64;100.00
51972;BME280;37991;49.662;10.060;2024-02-21T06:56:53;99868.69;;;4.67;100.00
51972;BME280;37991;49.662;10.060;2024-02-21T06:59:18;99867.72;;;4.70;100.00
51972;BME280;37991;49.662;10.060;2024-02-21T07:01:48;99873.56;;;4.75;100.00
51972;BME280;37991;49.662;10.060;2024-02-21T07:04:14;99868.13;;;4.82;100.00
51972;BME280;37991;49.662;10.060;2024-02-21T07:06:40;99861.66;;;4.93;100.00
51972;BME280;37991;49.662;10.060;2024-02-21T07:09:05;99860.22;;;5.07;100.00
51972;BME280;37991;49.662;10.060;2024-02-21T07:11:30;99859.13;;;5.13;100.00
51972;BME280;37991;49.662;10.060;2024-02-21T07:13:56;99846.81;;;5.18;100.00
51972;BME280;37991;49.662;10.060;2024-02-21T07:16:21;99850.84;;;5.25;100.00
51972;BME280;37991;49.662;10.060;2024-02-21T07:18:46;99850.69;;;5.30;100.00
51972;BME280;37991;49.662;10.060;2024-02-21T07:21:12;99855.47;;;5.39;100.00
51972;BME280;37991;49.662;10.060;2024-02-21T07:23:41;99850.09;;;5.44;100.00
51972;BME280;37991;49.662;10.060;2024-02-21T07:26:06;99854.13;;;5.51;100.00
51972;BME280;37991;49.662;10.060;2024-02-21T07:28:31;99850.38;;;5.58;100.00
51972;BME280;37991;49.662;10.060;2024-02-21T07:30:59;99858.91;;;5.62;100.00
51972;BME280;37991;49.662;10.060;2024-02-21T07:33:24;99854.34;;;5.67;100.00
51972;BME280;37991;49.662;10.060;2024-02-21T07:35:49;99849.16;;;5.67;100.00
51972;BME280;37991;49.662;10.060;2024-02-21T07:38:15;99844.41;;;5.76;100.00
51972;BME280;37991;49.662;10.060;2024-02-21T07:40:44;99842.25;;;5.86;100.00
51972;BME280;37991;49.662;10.060;2024-02-21T07:43:10;99836.72;;;5.95;100.00
51972;BME280;37991;49.662;10.060;2024-02-21T07:45:35;99838.00;;;6.05;100.00
51972;BME280;37991;49.662;10.060;2024-02-21T07:48:00;99843.63;;;6.15;100.00
51972;BME280;37991;49.662;10.060;2024-02-21T07:50:26;99845.66;;;6.29;100.00
51972;BME280;37991;49.662;10.060;2024-02-21T07:52:51;99850.50;;;6.37;100.00
51972;BME280;37991;49.662;10.060;2024-02-21T07:55:17;99857.91;;;6.46;100.00
51972;BME280;37991;49.662;10.060;2024-02-21T07:57:42;99854.31;;;6.48;100.00
51972;BME280;37991;49.662;10.060;2024-02-21T08:00:08;99855.03;;;6.52;100.00
51972;BME280;37991;49.662;10.060;2024-02-21T08:02:38;99858.06;;;6.62;100.00
51972;BME280;37991;49.662;10.060;2024-02-21T08:05:04;99849.97;;;6.68;100.00
51972;BME280;37991;49.662;10.060;2024-02-21T08:07:30;99849.69;;;6.74;100.00
51972;BME280;37991;49.662;10.060;2024-02-21T08:09:56;99846.81;;;6.80;99.59
51972;BME280;37991;49.662;10.060;2024-02-21T08:12:21;99844.59;;;6.90;99.44
51972;BME280;37991;49.662;10.060;2024-02-21T08:14:47;99836.38;;;6.99;98.82
51972;BME280;37991;49.662;10.060;2024-02-21T08:17:12;99836.84;;;7.07;98.26
51972;BME280;37991;49.662;10.060;2024-02-21T08:19:37;99833.94;;;7.13;97.87
51972;BME280;37991;49.662;10.060;2024-02-21T08:22:03;99835.25;;;7.22;97.88
51972;BME280;37991;49.662;10.060;2024-02-21T08:24:28;99830.59;;;7.29;97.27
51972;BME280;37991;49.662;10.060;2024-02-21T08:26:53;99825.16;;;7.33;95.93
51972;BME280;37991;49.662;10.060;2024-02-21T08:29:19;99828.91;;;7.45;94.91
51972;BME280;37991;49.662;10.060;2024-02-21T08:31:44;99834.81;;;7.49;94.54
51972;BME280;37991;49.662;10.060;2024-02-21T08:34:09;99829.47;;;7.69;93.22
51972;BME280;37991;49.662;10.060;2024-02-21T08:36:35;99828.00;;;7.81;91.58
51972;BME280;37991;49.662;10.060;2024-02-21T08:39:02;99825.84;;;7.89;90.78
51972;BME280;37991;49.662;10.060;2024-02-21T08:41:31;99830.75;;;7.95;90.25
51972;BME280;37991;49.662;10.060;2024-02-21T08:43:57;99817.41;;;8.01;89.63
51972;BME280;37991;49.662;10.060;2024-02-21T08:46:23;99817.97;;;8.06;89.76
51972;BME280;37991;49.662;10.060;2024-02-21T08:48:50;99814.13;;;8.13;88.88
51972;BME280;37991;49.662;10.060;2024-02-21T08:51:16;99808.75;;;8.16;88.79
51972;BME280;37991;49.662;10.060;2024-02-21T08:53:42;99801.88;;;8.31;87.70
51972;BME280;37991;49.662;10.060;2024-02-21T08:56:07;99806.88;;;8.52;86.01
51972;BME280;37991;49.662;10.060;2024-02-21T08:58:33;99802.09;;;8.60;85.13
51972;BME280;37991;49.662;10.060;2024-02-21T09:00:58;99807.50;;;8.73;84.60
51972;BME280;37991;49.662;10.060;2024-02-21T09:03:24;99801.34;;;8.90;83.84
51972;BME280;37991;49.662;10.060;2024-02-21T09:05:49;99789.97;;;9.06;83.85
51972;BME280;37991;49.662;10.060;2024-02-21T09:08:14;99800.56;;;9.19;82.75
51972;BME280;37991;49.662;10.060;2024-02-21T09:10:40;99789.22;;;9.19;82.16
51972;BME280;37991;49.662;10.060;2024-02-21T09:13:05;99782.81;;;9.24;81.51
51972;BME280;37991;49.662;10.060;2024-02-21T09:15:32;99778.19;;;9.29;81.41
51972;BME280;37991;49.662;10.060;2024-02-21T09:17:58;99778.72;;;9.35;81.25
51972;BME280;37991;49.662;10.060;2024-02-21T09:20:23;99769.69;;;9.26;79.89
51972;BME280;37991;49.662;10.060;2024-02-21T09:22:48;99771.63;;;9.22;79.93
51972;BME280;37991;49.662;10.060;2024-02-21T09:25:13;99775.06;;;9.23;79.76
51972;BME280;37991;49.662;10.060;2024-02-21T09:27:39;99762.56;;;9.28;79.97
51972;BME280;37991;49.662;10.060;2024-02-21T09:30:06;99756.81;;;9.37;80.64
51972;BME280;37991;49.662;10.060;2024-02-21T09:32:31;99763.56;;;9.41;80.25
51972;BME280;37991;49.662;10.060;2024-02-21T09:34:58;99752.97;;;9.28;79.77
51972;BME280;37991;49.662;10.060;2024-02-21T09:37:23;99750.03;;;9.19;80.04
51972;BME280;37991;49.662;10.060;2024-02-21T09:39:49;99755.94;;;9.22;80.38
51972;BME280;37991;49.662;10.060;2024-02-21T09:42:20;99753.06;;;9.27;80.12
51972;BME280;37991;49.662;10.060;2024-02-21T09:44:46;99762.38;;;9.31;80.04
51972;BME280;37991;49.662;10.060;2024-02-21T09:47:19;99752.59;;;9.35;80.38
51972;BME280;37991;49.662;10.060;2024-02-21T09:49:47;99747.38;;;9.35;79.87
51972;BME280;37991;49.662;10.060;2024-02-21T09:52:14;99745.88;;;9.30;80.01
51972;BME280;37991;49.662;10.060;2024-02-21T09:54:40;99742.91;;;9.37;80.02
51972;BME280;37991;49.662;10.060;2024-02-21T09:57:09;99730.66;;;9.37;79.65
51972;BME280;37991;49.662;10.060;2024-02-21T09:59:35;99741.94;;;9.38;79.68
51972;BME280;37991;49.662;10.060;2024-02-21T10:02:00;99736.53;;;9.41;79.78
51972;BME280;37991;49.662;10.060;2024-02-21T10:04:26;99733.69;;;9.45;79.86
51972;BME280;37991;49.662;10.060;2024-02-21T10:06:53;99724.81;;;9.48;78.88
51972;BME280;37991;49.662;10.060;2024-02-21T10:09:25;99736.09;;;9.48;78.73
51972;BME280;37991;49.662;10.060;2024-02-21T10:12:08;99725.47;;;9.51;78.76
51972;BME280;37991;49.662;10.060;2024-02-21T10:14:34;99722.09;;;9.49;77.88
51972;BME280;37991;49.662;10.060;2024-02-21T10:17:00;99723.03;;;9.48;78.67
51972;BME280;37991;49.662;10.060;2024-02-21T10:19:25;99720.06;;;9.54;77.97
51972;BME280;37991;49.662;10.060;2024-02-21T10:22:17;99712.47;;;9.50;77.75
51972;BME280;37991;49.662;10.060;2024-02-21T10:24:42;99708.75;;;9.54;78.14
51972;BME280;37991;49.662;10.060;2024-02-21T10:27:08;99713.34;;;9.65;77.93
51972;BME280;37991;49.662;10.060;2024-02-21T10:29:36;99711.56;;;9.65;77.53
51972;BME280;37991;49.662;10.060;2024-02-21T10:34:30;99699.97;;;9.55;77.17
51972;BME280;37991;49.662;10.060;2024-02-21T10:37:03;99699.59;;;9.61;76.64
51972;BME280;37991;49.662;10.060;2024-02-21T10:39:29;99704.66;;;9.64;77.13
51972;BME280;37991;49.662;10.060;2024-02-21T10:41:59;99690.91;;;9.61;76.31
51972;BME280;37991;49.662;10.060;2024-02-21T10:44:28;99677.91;;;9.59;76.12
51972;BME280;37991;49.662;10.060;2024-02-21T10:46:55;99675.31;;;9.73;76.38
51972;BME280;37991;49.662;10.060;2024-02-21T10:49:26;99678.09;;;9.85;76.23
51972;BME280;37991;49.662;10.060;2024-02-21T10:51:57;99676.69;;;9.93;76.23
51972;BME280;37991;49.662;10.060;2024-02-21T10:54:34;99661.53;;;9.98;76.01
51972;BME280;37991;49.662;10.060;2024-02-21T10:57:02;99662.75;;;10.07;76.97
51972;BME280;37991;49.662;10.060;2024-02-21T10:59:30;99664.03;;;10.14;75.19
51972;BME280;37991;49.662;10.060;2024-02-21T11:01:57;99650.41;;;10.09;74.17
51972;BME280;37991;49.662;10.060;2024-02-21T11:04:23;99650.78;;;10.03;74.60
51972;BME280;37991;49.662;10.060;2024-02-21T11:06:49;99646.50;;;10.02;74.65
51972;BME280;37991;49.662;10.060;2024-02-21T11:09:15;99638.81;;;10.13;75.42
51972;BME280;37991;49.662;10.060;2024-02-21T11:11:43;99637.03;;;10.14;75.42
51972;BME280;37991;49.662;10.060;2024-02-21T11:14:19;99628.31;;;10.13;75.10
51972;BME280;37991;49.662;10.060;2024-02-21T11:16:45;99620.38;;;10.15;75.71
51972;BME280;37991;49.662;10.060;2024-02-21T11:19:21;99613.81;;;10.22;74.24
51972;BME280;37991;49.662;10.060;2024-02-21T11:21:47;99604.50;;;10.18;74.23
51972;BME280;37991;49.662;10.060;2024-02-21T11:24:13;99600.72;;;10.22;74.17
51972;BME280;37991;49.662;10.060;2024-02-21T11:26:40;99601.75;;;10.19;73.63
51972;BME280;37991;49.662;10.060;2024-02-21T11:29:07;99593.59;;;10.24;72.60
51972;BME280;37991;49.662;10.060;2024-02-21T11:31:44;99592.50;;;10.28;72.01
51972;BME280;37991;49.662;10.060;2024-02-21T11:34:13;99590.63;;;10.30;72.18
51972;BME280;37991;49.662;10.060;2024-02-21T11:36:52;99589.69;;;10.31;72.28
51972;BME280;37991;49.662;10.060;2024-02-21T11:39:24;99580.13;;;10.30;71.77
51972;BME280;37991;49.662;10.060;2024-02-21T11:42:06;99579.75;;;10.36;71.67
51972;BME280;37991;49.662;10.060;2024-02-21T11:44:36;99569.28;;;10.36;71.62
51972;BME280;37991;49.662;10.060;2024-02-21T11:47:04;99566.22;;;10.30;72.10
51972;BME280;37991;49.662;10.060;2024-02-21T11:49:30;99560.69;;;10.34;71.11
51972;BME280;37991;49.662;10.060;2024-02-21T11:52:02;99561.13;;;10.41;71.22
51972;BME280;37991;49.662;10.060;2024-02-21T11:54:33;99549.41;;;10.46;70.62
51972;BME280;37991;49.662;10.060;2024-02-21T11:56:59;99538.47;;;10.40;70.04
51972;BME280;37991;49.662;10.060;2024-02-21T11:59:25;99542.19;;;10.50;70.15
51972;BME280;37991;49.662;10.060;2024-02-21T12:01:52;99537.47;;;10.55;70.16
51972;BME280;37991;49.662;10.060;2024-02-21T12:04:18;99531.38;;;10.55;70.38
51972;BME280;37991;49.662;10.060;2024-02-21T12:06:45;99522.38;;;10.59;69.57
51972;BME280;37991;49.662;10.060;2024-02-21T12:09:17;99510.84;;;10.61;68.54
51972;BME280;37991;49.662;10.060;2024-02-21T12:11:43;99509.41;;;10.57;68.41
51972;BME280;37991;49.662;10.060;2024-02-21T12:14:09;99493.06;;;10.54;66.65
51972;BME280;37991;49.662;10.060;2024-02-21T12:16:35;99491.81;;;10.59;68.55
51972;BME280;37991;49.662;10.060;2024-02-21T12:19:04;99491.06;;;10.57;68.15
51972;BME280;37991;49.662;10.060;2024-02-21T12:21:30;99489.28;;;10.58;68.09
51972;BME280;37991;49.662;10.060;2024-02-21T12:23:58;99479.22;;;10.64;68.10
51972;BME280;37991;49.662;10.060;2024-02-21T12:26:23;99483.94;;;10.72;69.09
51972;BME280;37991;49.662;10.060;2024-02-21T12:28:49;99490.03;;;10.73;68.33
51972;BME280;37991;49.662;10.060;2024-02-21T12:31:14;99486.78;;;10.69;67.35
51972;BME280;37991;49.662;10.060;2024-02-21T12:33:42;99473.88;;;10.66;67.21
51972;BME280;37991;49.662;10.060;2024-02-21T12:36:07;99476.09;;;10.72;67.63
51972;BME280;37991;49.662;10.060;2024-02-21T12:38:34;99466.03;;;10.66;66.48
51972;BME280;37991;49.662;10.060;2024-02-21T12:41:00;99458.38;;;10.63;65.81
51972;BME280;37991;49.662;10.060;2024-02-21T12:43:26;99459.91;;;10.65;65.66
51972;BME280;37991;49.662;10.060;2024-02-21T12:45:52;99456.06;;;10.71;66.21
51972;BME280;37991;49.662;10.060;2024-02-21T12:48:17;99455.13;;;10.72;66.13
51972;BME280;37991;49.662;10.060;2024-02-21T12:50:49;99450.72;;;10.73;66.18